LFRC

Cherbourg-Maupertus Airport

Airport
ICAO code
LFRC
IATA Code
CER
Summary
ICAO Region
EUR
ICAO Territory
Location

, Basse-Normandie

Serving
Cherbourg
Elevation
459 ft
Coordinates
49° 39' 0" N , 1° 28' 13" W
Metar
Observation
LFRC 010600Z AUTO 06015KT 3500 BR OVC003 11/10 Q1022 BECMG 06015G25KT 9999 NSW
Station
Cherbourg / Maupertus
Date/Time
2023-06-01 06:00:00
Wind direction
60°
Wind speed
15 kts
Lowest cloud amount
overcast
Temperature
11°C
Dew point
10°C
Humidity
93%
QNH
1022 hPa
Weather condition
n/a

Runways

Designator Length Width Surface Rops
10/28 2440 45 ASP No/No

Airport map

Aerial View

SKYbrary Partners:

Safety knowledge contributed by: